createdAt,value
2019-01-02T00:03:30.802Z,100441.57
2019-01-02T00:08:36.768Z,100448.42
2019-01-02T00:13:42.147Z,100460.06
2019-01-02T00:18:47.137Z,100454.23
2019-01-02T00:23:52.210Z,100449.27
2019-01-02T00:28:57.811Z,100457.33
2019-01-02T00:34:03.443Z,100444.31
2019-01-02T00:39:09.707Z,100458.41
2019-01-02T00:44:15.607Z,100457.67
2019-01-02T00:49:20.734Z,100475.53
2019-01-02T00:54:27.041Z,100463.39
2019-01-02T00:59:32.144Z,100468.05
2019-01-02T01:04:37.241Z,100475.48
2019-01-02T01:09:42.272Z,100480.03
2019-01-02T01:14:47.248Z,100479.59
2019-01-02T01:19:52.566Z,100490.36
2019-01-02T01:24:57.868Z,100491.67
2019-01-02T01:30:04.271Z,100514.64
2019-01-02T01:35:13.731Z,100505.32
2019-01-02T01:40:19.338Z,100518.46
2019-01-02T01:45:25.824Z,100516.41
2019-01-02T01:50:37.360Z,100528.73
2019-01-02T01:55:42.834Z,100528.68
2019-01-02T02:00:50.547Z,100541.20
2019-01-02T02:05:55.642Z,100544.62
2019-01-02T02:11:01.214Z,100547.06
2019-01-02T02:16:06.207Z,100530.21
2019-01-02T02:21:11.302Z,100537.37
2019-01-02T02:26:16.349Z,100532.05
2019-01-02T02:31:22.016Z,100531.19
2019-01-02T02:36:27.483Z,100539.30
2019-01-02T02:41:32.936Z,100547.61
2019-01-02T02:46:38.272Z,100555.55
2019-01-02T02:51:43.461Z,100571.92
2019-01-02T02:56:49.366Z,100570.44
2019-01-02T03:01:54.805Z,100563.92
2019-01-02T03:07:00.270Z,100554.67
2019-01-02T03:12:05.605Z,100556.16
2019-01-02T03:17:10.686Z,100568.63
2019-01-02T03:22:16.447Z,100566.13
2019-01-02T03:27:21.764Z,100578.18
2019-01-02T03:32:27.056Z,100574.44
2019-01-02T03:37:32.452Z,100578.61
2019-01-02T03:42:37.494Z,100591.20
2019-01-02T03:47:42.592Z,100592.45
2019-01-02T03:52:47.674Z,100597.91
2019-01-02T03:57:52.773Z,100606.43
2019-01-02T04:02:57.920Z,100607.22
2019-01-02T04:08:05.808Z,100610.98
2019-01-02T04:13:12.975Z,100619.33
2019-01-02T04:18:17.996Z,100620.23
2019-01-02T04:23:23.129Z,100618.42
2019-01-02T04:28:28.529Z,100618.06
2019-01-02T04:33:33.530Z,100622.23
2019-01-02T04:38:38.552Z,100621.48
2019-01-02T04:43:43.754Z,100627.42
2019-01-02T04:48:49.057Z,100641.12
2019-01-02T04:53:54.127Z,100648.14
2019-01-02T04:58:59.304Z,100644.93
2019-01-02T05:04:04.720Z,100640.83
2019-01-02T05:09:09.882Z,100646.02
2019-01-02T05:14:14.933Z,100646.24
2019-01-02T05:19:20.718Z,100654.81
2019-01-02T05:24:26.030Z,100663.64
2019-01-02T05:29:31.156Z,100675.30
2019-01-02T05:34:36.347Z,100681.14
2019-01-02T05:39:41.790Z,100689.38
2019-01-02T05:44:46.914Z,100694.70
2019-01-02T05:49:52.002Z,100708.13
2019-01-02T05:54:57.024Z,100693.55
2019-01-02T06:00:02.520Z,100715.02
2019-01-02T06:05:08.300Z,100717.34
2019-01-02T06:10:15.089Z,100724.05
2019-01-02T06:15:20.466Z,100726.98
2019-01-02T06:20:25.665Z,100738.80
2019-01-02T06:25:30.716Z,100734.05
2019-01-02T06:30:35.726Z,100742.01
2019-01-02T06:35:41.133Z,100749.66
2019-01-02T06:40:46.653Z,100770.24
2019-01-02T06:45:51.780Z,100773.22
2019-01-02T06:50:56.935Z,100787.50
2019-01-02T06:56:02.164Z,100793.49
2019-01-02T07:01:08.129Z,100791.80
2019-01-02T07:06:13.292Z,100793.72
2019-01-02T07:11:18.498Z,100797.13
2019-01-02T07:16:23.704Z,100808.52
2019-01-02T07:21:28.813Z,100821.05
2019-01-02T07:26:34.541Z,100825.59
2019-01-02T07:31:39.676Z,100827.92
2019-01-02T07:37:31.942Z,100834.56
2019-01-02T07:43:08.431Z,100837.41
2019-01-02T07:48:47.859Z,100844.47
2019-01-02T07:54:25.376Z,100852.12
2019-01-02T08:00:23.449Z,100858.64
2019-01-02T08:06:01.373Z,100864.23
2019-01-02T08:11:32.616Z,100867.77
2019-01-02T08:17:12.516Z,100878.46
2019-01-02T08:22:53.845Z,100875.76
2019-01-02T08:28:40.133Z,100894.52
2019-01-02T08:34:26.655Z,100893.66
2019-01-02T08:40:12.154Z,100912.26
2019-01-02T08:45:54.440Z,100943.64
2019-01-02T08:51:31.513Z,100954.66
2019-01-02T08:57:29.771Z,100971.08
2019-01-02T09:02:57.021Z,100967.23
2019-01-02T09:08:42.830Z,100977.73
2019-01-02T09:14:24.383Z,100983.00
2019-01-02T09:20:03.256Z,100986.30
2019-01-02T09:25:43.845Z,100979.33
2019-01-02T09:31:27.793Z,100989.98
2019-01-02T09:37:14.049Z,100991.82
2019-01-02T09:43:00.612Z,101018.02
2019-01-02T09:48:45.396Z,101023.41
2019-01-02T09:54:48.708Z,101023.38
2019-01-02T10:00:42.911Z,101026.80
2019-01-02T10:06:11.743Z,101041.13
2019-01-02T10:11:42.799Z,101037.42
2019-01-02T10:17:12.798Z,101042.69
2019-01-02T10:22:49.998Z,101039.79
2019-01-02T10:28:40.545Z,101057.21
2019-01-02T10:34:31.801Z,101064.33
2019-01-02T10:40:17.225Z,101062.55
2019-01-02T10:46:06.104Z,101068.04
2019-01-02T10:52:03.725Z,101078.98
2019-01-02T10:57:50.926Z,101081.58
2019-01-02T11:03:41.351Z,101089.95
2019-01-02T11:09:18.111Z,101091.09
2019-01-02T11:14:54.655Z,101101.46
2019-01-02T11:20:36.863Z,101104.95
2019-01-02T11:26:17.005Z,101113.92
2019-01-02T11:31:57.693Z,101117.00
2019-01-02T11:37:41.143Z,101118.84
2019-01-02T11:43:15.059Z,101126.85
2019-01-02T11:48:20.187Z,101112.64
2019-01-02T11:53:26.385Z,101127.56
2019-01-02T11:58:35.377Z,101129.89
2019-01-02T12:03:41.071Z,101128.63
2019-01-02T12:08:53.669Z,101139.98
2019-01-02T12:14:00.761Z,101143.52
2019-01-02T12:19:09.237Z,101141.27
2019-01-02T12:24:15.609Z,101150.78
2019-01-02T12:29:22.884Z,101150.04
2019-01-02T12:34:30.617Z,101164.29
2019-01-02T12:39:43.329Z,101165.67
2019-01-02T12:44:50.719Z,101171.63
2019-01-02T12:49:56.396Z,101178.24
2019-01-02T12:55:01.504Z,101192.27
2019-01-02T13:00:13.643Z,101195.03
2019-01-02T13:05:52.391Z,101212.67
2019-01-02T13:11:15.396Z,101217.80
2019-01-02T13:16:49.684Z,101225.02
2019-01-02T13:22:23.836Z,101236.91
2019-01-02T13:27:40.086Z,101249.84
2019-01-02T13:33:27.071Z,101253.31
2019-01-02T13:38:59.657Z,101259.27
2019-01-02T13:44:30.673Z,101270.92
2019-01-02T13:49:47.042Z,101272.11
2019-01-02T13:54:53.503Z,101279.27
2019-01-02T13:59:58.870Z,101287.67
2019-01-02T14:05:04.268Z,101301.20
2019-01-02T14:10:09.755Z,101303.12
2019-01-02T14:15:15.908Z,101310.61
2019-01-02T14:20:21.574Z,101314.69
2019-01-02T14:25:26.804Z,101315.08
2019-01-02T14:30:31.901Z,101325.10
2019-01-02T14:35:36.979Z,101329.34
2019-01-02T14:40:42.028Z,101324.86
2019-01-02T14:45:47.257Z,101330.38
2019-01-02T14:50:52.339Z,101339.80
2019-01-02T14:55:59.242Z,101343.24
2019-01-02T15:01:04.732Z,101347.98
2019-01-02T15:06:10.219Z,101358.61
2019-01-02T15:11:15.364Z,101368.31
2019-01-02T15:16:20.485Z,101377.72
2019-01-02T15:21:25.486Z,101386.20
2019-01-02T15:26:30.720Z,101389.77
2019-01-02T15:31:36.549Z,101391.90
2019-01-02T15:36:42.057Z,101410.69
2019-01-02T15:41:47.290Z,101408.14
2019-01-02T15:46:52.810Z,101418.27
2019-01-02T15:51:58.371Z,101419.06
2019-01-02T15:57:03.508Z,101422.99
2019-01-02T16:02:09.130Z,101424.20
2019-01-02T16:07:14.382Z,101435.22
2019-01-02T16:12:19.568Z,101442.05
2019-01-02T16:17:24.716Z,101445.70
2019-01-02T16:22:37.722Z,101454.16
2019-01-02T16:27:44.528Z,101462.82
2019-01-02T16:32:50.226Z,101473.31
2019-01-02T16:37:56.918Z,101476.97
2019-01-02T16:43:02.370Z,101484.23
2019-01-02T16:48:09.100Z,101498.33
2019-01-02T16:53:14.210Z,101486.61
2019-01-02T16:58:20.082Z,101500.38
2019-01-02T17:03:25.643Z,101508.70
2019-01-02T17:08:31.152Z,101505.19
2019-01-02T17:13:36.318Z,101513.68
2019-01-02T17:18:41.627Z,101521.32
2019-01-02T17:23:49.109Z,101532.80
2019-01-02T17:28:54.163Z,101539.67
2019-01-02T17:33:59.954Z,101528.78
2019-01-02T17:39:07.662Z,101535.22
2019-01-02T17:44:13.182Z,101545.39
2019-01-02T17:49:18.319Z,101550.18
2019-01-02T17:54:23.912Z,101555.31
2019-01-02T17:59:29.107Z,101564.00
2019-01-02T18:04:35.182Z,101561.23
2019-01-02T18:09:41.169Z,101574.12
2019-01-02T18:14:46.501Z,101578.13
2019-01-02T18:19:51.965Z,101585.25
2019-01-02T18:24:57.202Z,101598.84
2019-01-02T18:30:02.423Z,101599.52
2019-01-02T18:35:08.111Z,101609.84
2019-01-02T18:40:14.935Z,101621.63
2019-01-02T18:45:20.481Z,101626.87
2019-01-02T18:50:26.682Z,101635.56
2019-01-02T18:55:31.914Z,101639.30
2019-01-02T19:00:37.317Z,101651.09
2019-01-02T19:05:42.837Z,101660.50
2019-01-02T19:10:49.098Z,101666.17
2019-01-02T19:15:54.377Z,101665.19
2019-01-02T19:21:10.007Z,101658.00
2019-01-02T19:26:15.615Z,101673.52
2019-01-02T19:31:20.952Z,101683.89
2019-01-02T19:36:26.601Z,101686.84
2019-01-02T19:41:31.727Z,101691.52
2019-01-02T19:46:38.607Z,101694.63
2019-01-02T19:51:58.911Z,101703.12
2019-01-02T19:57:07.468Z,101707.60
2019-01-02T20:02:25.122Z,101716.58
2019-01-02T20:07:31.372Z,101717.47
2019-01-02T20:12:38.546Z,101722.71
2019-01-02T20:17:43.762Z,101724.56
2019-01-02T20:22:48.841Z,101725.88
2019-01-02T20:27:54.269Z,101721.21
2019-01-02T20:32:59.675Z,101719.39
2019-01-02T20:38:04.952Z,101715.78
2019-01-02T20:43:10.553Z,101717.63
2019-01-02T20:48:15.871Z,101714.76
2019-01-02T20:53:21.321Z,101715.48
2019-01-02T20:58:26.730Z,101719.09
2019-01-02T21:03:32.028Z,101712.42
2019-01-02T21:08:37.495Z,101722.76
2019-01-02T21:13:42.631Z,101721.64
2019-01-02T21:18:48.345Z,101726.74
2019-01-02T21:23:55.696Z,101718.89
2019-01-02T21:29:00.923Z,101713.05
2019-01-02T21:34:05.906Z,101716.98
2019-01-02T21:39:11.034Z,101715.83
2019-01-02T21:44:16.589Z,101710.59
2019-01-02T21:49:22.094Z,101707.11
2019-01-02T21:54:27.347Z,101702.88
2019-01-02T21:59:32.414Z,101699.27
2019-01-02T22:04:37.886Z,101700.25
2019-01-02T22:09:43.033Z,101706.38
2019-01-02T22:14:48.165Z,101705.28
2019-01-02T22:19:53.326Z,101707.95
2019-01-02T22:24:58.427Z,101705.47
2019-01-02T22:30:03.796Z,101706.58
2019-01-02T22:35:10.074Z,101710.09
2019-01-02T22:40:15.364Z,101714.55
2019-01-02T22:45:20.494Z,101712.98
2019-01-02T22:50:25.583Z,101717.63
2019-01-02T22:55:31.487Z,101720.11
2019-01-02T23:00:54.143Z,101727.77
2019-01-02T23:06:30.696Z,101733.88
2019-01-02T23:11:53.507Z,101734.03
2019-01-02T23:17:18.014Z,101739.88
2019-01-02T23:22:57.352Z,101741.33
2019-01-02T23:28:20.226Z,101752.59
2019-01-02T23:34:02.590Z,101746.60
2019-01-02T23:39:41.821Z,101751.23
2019-01-02T23:45:08.958Z,101767.52
2019-01-02T23:50:39.136Z,101773.28
2019-01-02T23:56:18.467Z,101773.65
